createdAt,value
2022-08-09T00:31:56.943Z,1016.12
2022-08-09T00:32:09.363Z,1016.14
2022-08-09T00:32:50.093Z,1016.15
2022-08-09T00:33:32.862Z,1016.13
2022-08-09T00:34:11.424Z,1016.14
2022-08-09T00:34:52.861Z,1016.12
2022-08-09T00:35:43.194Z,1016.13
2022-08-09T00:36:13.265Z,1016.09
2022-08-09T00:38:11.461Z,1016.1
2022-08-09T00:38:51.894Z,1016.09
2022-08-09T00:40:10.173Z,1016.07
2022-08-09T00:40:17.304Z,1016.11
2022-08-09T00:40:53.493Z,1016.14
2022-08-09T00:44:08.829Z,1016.12
2022-08-09T00:44:08.910Z,1016.16
2022-08-09T00:44:09.373Z,1016.17
2022-08-09T00:44:25.609Z,1016.17
2022-08-09T00:44:56.154Z,1016.18
2022-08-09T00:45:36.651Z,1016.16
2022-08-09T00:46:28.635Z,1016.18
2022-08-09T00:47:01.651Z,1016.2
2022-08-09T00:47:39.659Z,1016.19
2022-08-09T00:48:19.414Z,1016.25
2022-08-09T00:49:00.095Z,1016.22
2022-08-09T00:49:39.396Z,1016.19
2022-08-09T00:50:19.891Z,1016.23
2022-08-09T00:51:00.379Z,1016.23
2022-08-09T00:51:42.746Z,1016.23
2022-08-09T00:52:21.354Z,1016.23
2022-08-09T00:53:08.743Z,1016.25
2022-08-09T00:53:42.246Z,1016.24
2022-08-09T00:54:22.782Z,1016.25
2022-08-09T00:55:03.276Z,1016.25
2022-08-09T00:56:24.218Z,1016.3
2022-08-09T00:57:08.709Z,1016.22
2022-08-09T00:57:45.229Z,1016.25
2022-08-09T00:58:27.753Z,1016.29
2022-08-09T00:59:06.148Z,1016.26
2022-08-09T00:59:52.574Z,1016.22
2022-08-09T01:00:27.102Z,1016.28
2022-08-09T01:01:07.606Z,1016.26
2022-08-09T01:01:48.035Z,1016.27
2022-08-09T01:02:28.477Z,1016.3
2022-08-09T01:03:09.000Z,1016.31
2022-08-09T01:03:49.496Z,1016.31
2022-08-09T01:04:30.039Z,1016.25
2022-08-09T01:05:13.802Z,1016.31
2022-08-09T01:05:54.406Z,1016.29
2022-08-09T01:06:35.342Z,1016.33
2022-08-09T01:07:12.273Z,1016.29
2022-08-09T01:08:00.810Z,1016.27
2022-08-09T01:08:32.888Z,1016.27
2022-08-09T01:09:13.364Z,1016.29
2022-08-09T01:09:53.871Z,1016.27
2022-08-09T01:10:34.329Z,1016.27
2022-08-09T01:11:14.951Z,1016.27
2022-08-09T01:11:55.494Z,1016.26
2022-08-09T01:12:35.713Z,1016.26
2022-08-09T01:13:16.803Z,1016.25
2022-08-09T01:13:59.742Z,1016.26
2022-08-09T01:14:37.220Z,1016.26
2022-08-09T01:15:17.899Z,1016.27
2022-08-09T01:15:58.163Z,1016.27
2022-08-09T01:16:38.926Z,1016.26
2022-08-09T01:17:19.118Z,1016.26
2022-08-09T01:17:59.598Z,1016.28
2022-08-09T01:18:40.089Z,1016.24
2022-08-09T01:19:28.919Z,1016.27
2022-08-09T01:20:02.024Z,1016.28
2022-08-09T01:20:41.523Z,1016.28
2022-08-09T01:21:21.995Z,1016.27
2022-08-09T01:22:02.506Z,1016.29
2022-08-09T01:22:42.919Z,1016.21
2022-08-09T01:24:01.546Z,1016.23
2022-08-09T01:24:05.066Z,1016.25
2022-08-09T01:24:44.327Z,1016.26
2022-08-09T01:25:24.803Z,1016.25
2022-08-09T01:26:46.230Z,1016.27
2022-08-09T01:27:26.254Z,1016.24
2022-08-09T01:28:06.705Z,1016.19
2022-08-09T01:28:47.191Z,1016.21
2022-08-09T01:29:28.000Z,1016.23
2022-08-09T01:30:08.388Z,1016.23
2022-08-09T01:30:52.079Z,1016.21
2022-08-09T01:32:28.079Z,1016.19
2022-08-09T01:32:30.528Z,1016.23
2022-08-09T01:32:50.127Z,1016.21
2022-08-09T01:33:30.564Z,1016.2
2022-08-09T01:34:11.020Z,1016.18
2022-08-09T01:34:51.521Z,1016.18
2022-08-09T01:35:38.125Z,1016.22
2022-08-09T01:36:13.444Z,1016.23
2022-08-09T01:36:52.958Z,1016.23
2022-08-09T01:37:42.779Z,1016.2
2022-08-09T01:38:14.881Z,1016.22
2022-08-09T01:38:54.431Z,1016.21
2022-08-09T01:39:35.668Z,1016.25
2022-08-09T01:40:23.045Z,1016.25
2022-08-09T01:41:03.325Z,1016.22
2022-08-09T01:41:36.321Z,1016.23
2022-08-09T01:42:16.796Z,1016.22
2022-08-09T01:42:57.334Z,1016.22
2022-08-09T01:43:42.403Z,1016.22
2022-08-09T01:44:18.213Z,1016.18
2022-08-09T01:44:59.145Z,1016.19
2022-08-09T01:45:44.563Z,1016.18
2022-08-09T01:46:24.065Z,1016.19
2022-08-09T01:47:00.141Z,1016.19
2022-08-09T01:47:44.685Z,1016.2
2022-08-09T01:48:24.162Z,1016.18
2022-08-09T01:49:09.910Z,1016.13
2022-08-09T01:49:42.093Z,1016.16
2022-08-09T01:50:26.687Z,1016.17
2022-08-09T01:51:03.201Z,1016.15
2022-08-09T01:52:23.922Z,1016.15
2022-08-09T01:53:19.080Z,1016.15
2022-08-09T01:53:44.877Z,1016.14
2022-08-09T01:54:25.368Z,1016.13
2022-08-09T01:55:05.863Z,1016.15
2022-08-09T01:58:24.060Z,1016.11
2022-08-09T01:59:00.145Z,1016.16
2022-08-09T01:59:41.013Z,1016.13
2022-08-09T02:00:34.591Z,1016.15
2022-08-09T02:01:01.666Z,1016.15
2022-08-09T02:01:58.817Z,1016.16
2022-08-09T02:02:22.575Z,1016.17
2022-08-09T02:03:03.081Z,1016.19
2022-08-09T02:03:43.546Z,1016.19
2022-08-09T02:04:24.076Z,1016.21
2022-08-09T02:05:05.340Z,1016.16
2022-08-09T02:05:53.425Z,1016.19
2022-08-09T02:06:25.401Z,1016.2
2022-08-09T02:07:05.860Z,1016.16
2022-08-09T02:08:36.138Z,1016.22
2022-08-09T02:08:36.366Z,1016.16
2022-08-09T02:09:07.273Z,1016.2
2022-08-09T02:10:29.978Z,1015.88
2022-08-09T02:11:16.953Z,1016.19
2022-08-09T02:11:49.113Z,1016.18
2022-08-09T02:12:29.588Z,1016.15
2022-08-09T02:13:10.048Z,1016.16
2022-08-09T02:13:55.212Z,1016.18
2022-08-09T02:14:30.968Z,1016.19
2022-08-09T02:15:51.948Z,1016.18
2022-08-09T02:16:33.971Z,1016.2
2022-08-09T02:17:15.690Z,1016.18
2022-08-09T02:18:33.780Z,1016.18
2022-08-09T02:19:14.267Z,1016.16
2022-08-09T02:19:54.736Z,1016.16
2022-08-09T02:20:35.211Z,1016.12
2022-08-09T02:21:17.209Z,1016.15
2022-08-09T02:21:56.185Z,1016.14
2022-08-09T02:22:36.662Z,1016.13
2022-08-09T02:23:17.262Z,1016.14
2022-08-09T02:23:57.658Z,1016.14
2022-08-09T02:24:38.069Z,1016.12
2022-08-09T02:25:18.624Z,1016.13
2022-08-09T02:26:39.449Z,1016.14
2022-08-09T02:27:19.939Z,1016.15
2022-08-09T02:28:03.983Z,1016.14
2022-08-09T02:29:21.311Z,1016.13
2022-08-09T02:30:01.865Z,1016.16
2022-08-09T02:30:42.251Z,1016.12
2022-08-09T02:31:22.679Z,1016.17
2022-08-09T02:32:03.186Z,1016.13
2022-08-09T02:32:43.605Z,1016.16
2022-08-09T02:33:37.576Z,1016.17
2022-08-09T02:34:06.836Z,1016.15
2022-08-09T02:34:51.697Z,1016.18
2022-08-09T02:36:01.009Z,1016.18
2022-08-09T02:36:06.003Z,1016.17
2022-08-09T02:36:46.443Z,1016.15
2022-08-09T02:37:31.548Z,1016.19
2022-08-09T02:38:07.384Z,1016.18
2022-08-09T02:38:48.828Z,1016.18
2022-08-09T02:39:33.866Z,1016.19
2022-08-09T02:40:09.253Z,1016.18
2022-08-09T02:40:49.420Z,1016.17
2022-08-09T02:41:29.855Z,1016.15
2022-08-09T02:42:10.342Z,1016.17
2022-08-09T02:42:50.956Z,1016.18
2022-08-09T02:43:31.340Z,1016.17
2022-08-09T02:44:13.836Z,1016.15
2022-08-09T02:44:52.281Z,1016.2
2022-08-09T02:45:32.913Z,1016.17
2022-08-09T02:46:13.209Z,1016.17
2022-08-09T02:46:53.666Z,1016.16
2022-08-09T02:48:19.675Z,1016.15
2022-08-09T02:48:55.098Z,1016.16
2022-08-09T02:49:38.622Z,1016.15
2022-08-09T02:50:16.043Z,1016.17
2022-08-09T02:50:56.684Z,1016.13
2022-08-09T02:51:40.364Z,1016.14
2022-08-09T02:52:17.481Z,1016.17
2022-08-09T02:52:57.942Z,1016.2
2022-08-09T02:53:38.424Z,1016.11
2022-08-09T02:54:18.948Z,1016.14
2022-08-09T02:54:59.411Z,1016.15
2022-08-09T02:55:47.025Z,1016.16
2022-08-09T02:56:20.335Z,1016.12
2022-08-09T02:57:00.835Z,1016.15
2022-08-09T02:57:59.841Z,1016.11
2022-08-09T02:58:33.193Z,1016.13
2022-08-09T02:59:02.273Z,1016.16
2022-08-09T03:00:11.523Z,1016.13
2022-08-09T03:00:25.787Z,1016.14
2022-08-09T03:01:04.144Z,1016.15
2022-08-09T03:02:06.543Z,1016.08
2022-08-09T03:02:24.685Z,1016.12
2022-08-09T03:03:05.121Z,1016.14
2022-08-09T03:04:13.450Z,1016.15
2022-08-09T03:04:26.382Z,1016.13
2022-08-09T03:05:06.514Z,1016.15
2022-08-09T03:05:47.043Z,1016.16
2022-08-09T03:06:27.904Z,1016.15
2022-08-09T03:07:12.620Z,1016.14
2022-08-09T03:07:55.277Z,1016.15
2022-08-09T03:08:28.875Z,1016.18
2022-08-09T03:09:09.313Z,1016.16
2022-08-09T03:09:54.100Z,1016.12
2022-08-09T03:10:30.308Z,1016.09
2022-08-09T03:11:10.791Z,1016.1
2022-08-09T03:12:05.096Z,1016.15
2022-08-09T03:13:12.246Z,1016.14
2022-08-09T03:13:58.445Z,1016.18
2022-08-09T03:14:33.164Z,1016.13
2022-08-09T03:15:13.691Z,1016.19
2022-08-09T03:16:04.981Z,1016.21
2022-08-09T03:16:36.539Z,1016.16
2022-08-09T03:17:16.322Z,1016.18
2022-08-09T03:17:58.057Z,1016.18
2022-08-09T03:18:36.052Z,1016.19
2022-08-09T03:19:53.119Z,1016.2
2022-08-09T03:19:59.766Z,1016.18
2022-08-09T03:20:37.387Z,1016.15
2022-08-09T03:21:17.870Z,1016.16
2022-08-09T03:21:58.363Z,1016.19
2022-08-09T03:22:41.591Z,1016.16
2022-08-09T03:23:24.097Z,1016.18
2022-08-09T03:24:04.236Z,1016.19
2022-08-09T03:24:42.889Z,1016.19
2022-08-09T03:25:22.099Z,1016.19
2022-08-09T03:26:03.024Z,1016.17
2022-08-09T03:26:45.162Z,1016.19
2022-08-09T03:27:22.422Z,1016.21
2022-08-09T03:28:02.683Z,1016.2
2022-08-09T03:28:43.558Z,1016.22
2022-08-09T03:29:23.754Z,1016.14
2022-08-09T03:30:04.439Z,1016.17
2022-08-09T03:30:44.745Z,1016.16
2022-08-09T03:31:25.204Z,1016.19
2022-08-09T03:32:05.658Z,1016.15
2022-08-09T03:32:46.182Z,1016.21
2022-08-09T03:33:26.596Z,1016.16
2022-08-09T03:34:07.086Z,1016.17
2022-08-09T03:34:48.175Z,1016.21
2022-08-09T03:35:44.128Z,1016.15
2022-08-09T03:36:12.196Z,1016.16
2022-08-09T03:36:58.440Z,1016.15
2022-08-09T03:37:54.243Z,1016.16
2022-08-09T03:38:10.535Z,1016.17
2022-08-09T03:38:50.978Z,1016.17
2022-08-09T03:39:37.742Z,1016.15
2022-08-09T03:40:13.015Z,1016.15
2022-08-09T03:40:52.369Z,1016.18
2022-08-09T03:41:44.868Z,1016.15
2022-08-09T03:42:13.401Z,1016.19
2022-08-09T03:42:53.845Z,1016.15
2022-08-09T03:43:34.257Z,1016.17
2022-08-09T03:44:15.433Z,1016.2
2022-08-09T03:44:55.173Z,1016.22
2022-08-09T03:46:03.804Z,1016.2
2022-08-09T03:46:19.766Z,1016.2
2022-08-09T03:46:56.634Z,1016.21
2022-08-09T03:47:39.861Z,1016.16
2022-08-09T03:48:18.750Z,1016.22
2022-08-09T03:48:58.073Z,1016.21
2022-08-09T03:49:38.526Z,1016.2
2022-08-09T03:50:27.799Z,1016.21
2022-08-09T03:50:59.496Z,1016.23
2022-08-09T03:51:44.203Z,1016.24
2022-08-09T03:52:20.446Z,1016.26
2022-08-09T03:53:00.952Z,1016.26
2022-08-09T03:53:41.405Z,1016.25
2022-08-09T03:54:29.067Z,1016.25
2022-08-09T03:55:02.371Z,1016.28
2022-08-09T03:55:42.862Z,1016.29
2022-08-09T03:56:23.327Z,1016.26
2022-08-09T03:57:04.148Z,1016.28
2022-08-09T03:57:44.602Z,1016.32
2022-08-09T03:58:24.770Z,1016.29
2022-08-09T03:59:05.301Z,1016.31
2022-08-09T03:59:53.120Z,1016.32
2022-08-09T04:00:26.382Z,1016.36
2022-08-09T04:01:07.370Z,1016.35
2022-08-09T04:01:48.370Z,1016.36
2022-08-09T04:02:28.995Z,1016.35
2022-08-09T04:03:09.323Z,1016.39
2022-08-09T04:04:01.604Z,1016.37
2022-08-09T04:04:32.677Z,1016.39
2022-08-09T04:05:26.549Z,1016.37
2022-08-09T04:05:51.278Z,1016.42
2022-08-09T04:06:31.777Z,1016.39
2022-08-09T04:07:14.445Z,1016.37
2022-08-09T04:07:57.029Z,1016.42
2022-08-09T04:08:34.662Z,1016.37
2022-08-09T04:09:41.540Z,1016.46
2022-08-09T04:09:55.654Z,1016.42
2022-08-09T04:10:36.081Z,1016.45
2022-08-09T04:11:16.555Z,1016.45
2022-08-09T04:11:57.017Z,1016.43
2022-08-09T04:12:38.252Z,1016.46
2022-08-09T04:13:19.174Z,1016.44
2022-08-09T04:14:37.853Z,1016.42
2022-08-09T04:14:54.392Z,1016.4
2022-08-09T04:15:29.847Z,1016.39
2022-08-09T04:16:19.151Z,1016.39
2022-08-09T04:16:42.258Z,1016.41
2022-08-09T04:17:22.807Z,1016.41
2022-08-09T04:18:03.230Z,1016.38
2022-08-09T04:18:43.864Z,1016.45
2022-08-09T04:19:30.221Z,1016.4
2022-08-09T04:20:04.941Z,1016.41
2022-08-09T04:20:45.620Z,1016.41
2022-08-09T04:21:26.052Z,1016.43
2022-08-09T04:22:06.494Z,1016.45
2022-08-09T04:22:47.057Z,1016.51
2022-08-09T04:23:27.501Z,1016.44
2022-08-09T04:24:08.033Z,1016.48
2022-08-09T04:24:48.471Z,1016.5
2022-08-09T04:25:28.985Z,1016.49
2022-08-09T04:26:09.521Z,1016.51
2022-08-09T04:26:49.961Z,1016.5
2022-08-09T04:27:30.472Z,1016.51
2022-08-09T04:28:10.967Z,1016.51
2022-08-09T04:28:54.034Z,1016.51
2022-08-09T04:29:32.117Z,1016.57
2022-08-09T04:30:12.611Z,1016.54
2022-08-09T04:30:53.075Z,1016.55
2022-08-09T04:31:37.457Z,1016.58
2022-08-09T04:32:14.078Z,1016.59
2022-08-09T04:32:54.525Z,1016.62
2022-08-09T04:33:47.894Z,1016.62
2022-08-09T04:34:18.962Z,1016.62
2022-08-09T04:34:57.564Z,1016.65
2022-08-09T04:35:38.045Z,1016.64
2022-08-09T04:36:19.330Z,1016.65
2022-08-09T04:36:59.163Z,1016.67
2022-08-09T04:37:42.382Z,1016.63
2022-08-09T04:38:20.132Z,1016.68
2022-08-09T04:39:00.602Z,1016.71
2022-08-09T04:39:41.150Z,1016.71
2022-08-09T04:40:29.163Z,1016.7
2022-08-09T04:41:02.030Z,1016.72
2022-08-09T04:41:43.476Z,1016.74
2022-08-09T04:42:23.035Z,1016.7
2022-08-09T04:43:03.811Z,1016.75
2022-08-09T04:43:46.464Z,1016.7
2022-08-09T04:44:25.724Z,1016.73
2022-08-09T04:45:05.803Z,1016.73
2022-08-09T04:45:52.951Z,1016.71
2022-08-09T04:46:37.273Z,1016.74
2022-08-09T04:47:07.221Z,1016.75
2022-08-09T04:47:59.567Z,1016.74
2022-08-09T04:48:33.322Z,1016.76
2022-08-09T04:49:53.966Z,1016.7
2022-08-09T04:50:31.814Z,1016.73
2022-08-09T04:51:10.217Z,1016.71
2022-08-09T04:51:50.749Z,1016.71
2022-08-09T04:52:31.185Z,1016.71
2022-08-09T04:53:13.338Z,1016.71
2022-08-09T04:53:54.249Z,1016.71
2022-08-09T04:54:32.607Z,1016.7
2022-08-09T04:55:13.406Z,1016.72
2022-08-09T04:55:58.527Z,1016.69
2022-08-09T04:56:35.690Z,1016.75
2022-08-09T04:57:16.164Z,1016.71
2022-08-09T04:57:59.486Z,1016.72
2022-08-09T04:58:37.162Z,1016.71
2022-08-09T04:59:17.744Z,1016.76
2022-08-09T05:01:04.071Z,1016.72
2022-08-09T05:01:44.688Z,1016.77
2022-08-09T05:02:27.380Z,1016.75
2022-08-09T05:03:12.960Z,1016.81
2022-08-09T05:03:46.695Z,1016.75
2022-08-09T05:04:30.538Z,1016.77
2022-08-09T05:05:10.215Z,1016.79
2022-08-09T05:07:24.554Z,1016.82
2022-08-09T05:08:05.098Z,1016.83
2022-08-09T05:08:47.706Z,1016.82
2022-08-09T05:09:42.566Z,1016.86
2022-08-09T05:10:06.546Z,1016.84
2022-08-09T05:10:47.018Z,1016.82
2022-08-09T05:11:27.511Z,1016.84
2022-08-09T05:12:07.988Z,1016.87
2022-08-09T05:12:48.481Z,1016.9
2022-08-09T05:13:28.939Z,1016.83
2022-08-09T05:14:09.392Z,1016.86
2022-08-09T05:14:50.247Z,1016.87
2022-08-09T05:15:38.895Z,1016.89
2022-08-09T05:16:10.826Z,1016.89
2022-08-09T05:16:58.686Z,1016.88
2022-08-09T05:18:37.183Z,1016.88
2022-08-09T05:18:37.331Z,1016.86
2022-08-09T05:18:57.314Z,1016.9
2022-08-09T05:19:44.799Z,1016.88
2022-08-09T05:20:13.894Z,1016.85
2022-08-09T05:20:54.411Z,1016.87
2022-08-09T05:21:36.573Z,1016.88
2022-08-09T05:22:28.353Z,1016.9
2022-08-09T05:23:51.216Z,1016.94
2022-08-09T05:23:51.229Z,1016.92
2022-08-09T05:24:16.968Z,1016.88
2022-08-09T05:24:57.452Z,1016.87
2022-08-09T05:25:38.006Z,1016.93
2022-08-09T05:26:26.698Z,1016.9
2022-08-09T05:27:44.421Z,1016.93
2022-08-09T05:28:19.983Z,1016.94
2022-08-09T05:29:00.460Z,1016.9
2022-08-09T05:29:41.025Z,1016.89
2022-08-09T05:30:21.443Z,1016.91
2022-08-09T05:31:02.027Z,1016.94
2022-08-09T05:31:44.942Z,1016.94
2022-08-09T05:32:22.995Z,1016.91
2022-08-09T05:33:03.492Z,1016.95
2022-08-09T05:33:44.087Z,1016.91
2022-08-09T05:34:26.093Z,1016.98
2022-08-09T05:35:05.164Z,1017
2022-08-09T05:35:45.895Z,1017.04
2022-08-09T05:36:26.496Z,1016.99
2022-08-09T05:37:47.878Z,1017
2022-08-09T05:38:28.087Z,1016.99
2022-08-09T05:39:08.594Z,1017.04
2022-08-09T05:39:49.039Z,1017.08
2022-08-09T05:40:29.582Z,1017.05
2022-08-09T05:41:12.717Z,1017.1
2022-08-09T05:41:50.577Z,1017.09
2022-08-09T05:42:31.087Z,1017.05
2022-08-09T05:43:11.578Z,1017.11
2022-08-09T05:43:52.105Z,1017.09
2022-08-09T05:44:34.713Z,1017.1
2022-08-09T05:45:14.220Z,1017.07
2022-08-09T05:45:57.288Z,1017.1
2022-08-09T05:47:56.885Z,1017.06
2022-08-09T05:48:33.589Z,1017.09
2022-08-09T05:49:19.130Z,1017.08
2022-08-09T05:50:19.601Z,1017.08
2022-08-09T05:50:44.273Z,1017.1
2022-08-09T05:51:17.070Z,1017.06
2022-08-09T05:51:56.047Z,1017.03
2022-08-09T05:52:36.658Z,1017.05
2022-08-09T06:32:53.765Z,1017.19
2022-08-09T06:33:30.650Z,1017.24
2022-08-09T06:33:58.278Z,1017.25
2022-08-09T06:34:38.767Z,1017.26
2022-08-09T06:35:19.299Z,1017.26
2022-08-09T06:35:59.842Z,1017.28
2022-08-09T06:38:32.054Z,1017.32
2022-08-09T06:39:09.084Z,1017.3
2022-08-09T06:39:58.273Z,1017.28
2022-08-09T06:40:30.764Z,1017.25
2022-08-09T06:41:18.512Z,1017.29
2022-08-09T06:42:08.358Z,1016.86
2022-08-09T06:42:44.539Z,1017.27
2022-08-09T06:43:20.933Z,1017.29
2022-08-09T06:44:01.664Z,1017.31
2022-08-09T06:44:43.438Z,1017.3
2022-08-09T06:46:05.747Z,1017.29
2022-08-09T06:46:07.980Z,1017.26
2022-08-09T06:46:44.747Z,1017.29
2022-08-09T06:47:25.320Z,1017.23
2022-08-09T06:48:05.878Z,1017.25
2022-08-09T06:48:46.429Z,1017.28
2022-08-09T06:49:29.263Z,1017.25
2022-08-09T06:50:12.611Z,1017.26
2022-08-09T06:50:47.911Z,1017.23
2022-08-09T06:51:28.476Z,1017.23
2022-08-09T06:52:09.036Z,1017.26
2022-08-09T06:52:49.594Z,1017.23
2022-08-09T06:53:33.445Z,1017.26
2022-08-09T06:54:12.520Z,1017.24
2022-08-09T06:54:51.207Z,1017.26
2022-08-09T06:55:31.716Z,1017.28
2022-08-09T06:56:12.354Z,1017.28
2022-08-09T06:56:53.092Z,1017.31
2022-08-09T06:57:42.685Z,1017.29
2022-08-09T06:58:28.512Z,1017.35
2022-08-09T07:00:47.821Z,1017.34
2022-08-09T07:00:47.981Z,1017.31
2022-08-09T07:00:48.243Z,1017.32
2022-08-09T07:00:59.584Z,1017.31
2022-08-09T07:01:53.977Z,1017.33
2022-08-09T07:02:18.202Z,1017.3
2022-08-09T07:02:58.633Z,1017.32
2022-08-09T07:03:39.415Z,1017.32
2022-08-09T07:04:20.366Z,1017.36
2022-08-09T07:05:00.523Z,1017.36
2022-08-09T07:05:53.994Z,1017.32
2022-08-09T07:06:22.651Z,1017.34
2022-08-09T07:07:04.838Z,1017.38
2022-08-09T07:07:59.380Z,1017.35
2022-08-09T07:08:24.694Z,1017.37
2022-08-09T07:09:05.169Z,1017.42
2022-08-09T07:09:53.092Z,1017.41
2022-08-09T07:10:29.865Z,1017.39
2022-08-09T07:11:07.187Z,1017.4
2022-08-09T07:11:52.052Z,1017.43
2022-08-09T07:15:53.621Z,1017.44
2022-08-09T07:16:40.032Z,1017.46
2022-08-09T07:16:48.006Z,1017.45
2022-08-09T07:17:21.443Z,1017.47
2022-08-09T07:18:03.070Z,1017.46
2022-08-09T07:18:42.950Z,1017.48
2022-08-09T07:19:23.903Z,1017.5
2022-08-09T07:20:03.934Z,1017.47
2022-08-09T07:20:47.763Z,1017.5
2022-08-09T07:21:30.939Z,1017.47
2022-08-09T07:22:08.073Z,1017.49
2022-08-09T07:22:52.721Z,1017.46
2022-08-09T07:23:29.238Z,1017.47
2022-08-09T07:24:09.725Z,1017.46
2022-08-09T07:24:50.824Z,1017.46
2022-08-09T07:25:32.304Z,1017.47
2022-08-09T07:26:13.033Z,1017.45
2022-08-09T07:28:28.241Z,1017.43
2022-08-09T07:29:11.739Z,1017.46
2022-08-09T07:29:48.729Z,1017.43
2022-08-09T07:30:32.794Z,1017.42
2022-08-09T07:31:09.791Z,1017.45
2022-08-09T07:31:50.430Z,1017.44
2022-08-09T07:33:12.252Z,1017.38
2022-08-09T07:33:55.683Z,1017.34
2022-08-09T07:34:32.603Z,1017.35
2022-08-09T07:35:13.220Z,1017.33
2022-08-09T07:35:54.739Z,1017.31
2022-08-09T07:36:34.495Z,1017.31
2022-08-09T07:37:15.694Z,1017.3
2022-08-09T07:37:59.270Z,1017.31
2022-08-09T07:38:36.145Z,1017.29
2022-08-09T07:39:20.075Z,1017.32
2022-08-09T07:39:57.614Z,1017.35
2022-08-09T07:41:00.665Z,1017.34
2022-08-09T07:41:18.990Z,1017.35
2022-08-09T07:41:59.690Z,1017.31
2022-08-09T07:42:40.327Z,1017.29
2022-08-09T07:43:20.897Z,1017.31
2022-08-09T07:44:01.682Z,1017.29
2022-08-09T07:44:52.618Z,1017.29
2022-08-09T07:45:36.862Z,1017.27
2022-08-09T07:46:04.740Z,1017.31
2022-08-09T07:46:45.374Z,1017.31
2022-08-09T07:47:26.112Z,1017.3
2022-08-09T07:48:06.558Z,1017.31
2022-08-09T07:48:52.723Z,1017.29
2022-08-09T07:49:30.956Z,1017.29
2022-08-09T07:50:12.820Z,1017.31
2022-08-09T07:50:53.331Z,1017.3
2022-08-09T07:52:04.031Z,1017.3
2022-08-09T07:52:16.618Z,1017.28
2022-08-09T07:52:56.677Z,1017.26
2022-08-09T07:53:36.291Z,1017.26
2022-08-09T07:54:19.027Z,1017.24
2022-08-09T07:56:26.459Z,1017.23
2022-08-09T07:57:11.698Z,1017.24
2022-08-09T07:57:53.929Z,1017.26
2022-08-09T07:58:40.642Z,1017.24
2022-08-09T07:59:25.818Z,1017.22
2022-08-09T08:00:02.716Z,1017.24
2022-08-09T08:00:55.465Z,1017.23
2022-08-09T08:01:25.399Z,1017.27
2022-08-09T08:02:05.246Z,1017.24
2022-08-09T08:02:47.908Z,1017.24
2022-08-09T08:03:26.644Z,1017.26
2022-08-09T08:04:10.360Z,1017.23
2022-08-09T08:04:48.690Z,1017.28
2022-08-09T08:05:28.273Z,1017.22
2022-08-09T08:06:55.706Z,1017.25
2022-08-09T08:07:57.304Z,1017.24
2022-08-09T08:08:45.076Z,1017.23
2022-08-09T08:09:00.486Z,1017.27
2022-08-09T08:09:35.318Z,1017.26
2022-08-09T08:10:12.852Z,1017.27
2022-08-09T08:11:03.539Z,1017.26
2022-08-09T08:12:11.786Z,1017.25
2022-08-09T08:12:25.257Z,1017.27
2022-08-09T08:12:56.556Z,1017.27
2022-08-09T08:13:38.168Z,1017.29
2022-08-09T08:14:17.270Z,1017.3
2022-08-09T08:14:57.881Z,1017.3
2022-08-09T08:15:39.377Z,1017.25
2022-08-09T08:16:30.118Z,1017.27
2022-08-09T08:17:07.956Z,1017.28
2022-08-09T08:17:52.707Z,1017.29
2022-08-09T08:18:23.000Z,1017.24
2022-08-09T08:19:04.499Z,1017.26
2022-08-09T08:19:44.502Z,1017.26
2022-08-09T08:20:27.352Z,1017.27
2022-08-09T08:23:55.804Z,1017.29
2022-08-09T08:24:34.233Z,1017.29
2022-08-09T08:25:13.365Z,1017.29
2022-08-09T08:25:54.275Z,1017.25
2022-08-09T08:26:41.767Z,1017.3
2022-08-09T08:27:16.368Z,1017.28
2022-08-09T08:27:53.357Z,1017.28
2022-08-09T08:28:34.995Z,1017.31
2022-08-09T08:29:14.764Z,1017.3
2022-08-09T08:29:55.061Z,1017.32
2022-08-09T08:30:35.688Z,1017.32
2022-08-09T08:31:16.181Z,1017.33
2022-08-09T08:32:02.838Z,1017.34
2022-08-09T08:32:43.117Z,1017.36
2022-08-09T08:33:18.345Z,1017.31
2022-08-09T08:33:58.552Z,1017.3
2022-08-09T08:35:19.505Z,1017.31
2022-08-09T08:36:03.636Z,1017.28
2022-08-09T08:36:40.614Z,1017.31
2022-08-09T08:37:21.109Z,1017.33
2022-08-09T08:38:02.339Z,1017.33
2022-08-09T08:38:42.131Z,1017.32
2022-08-09T08:39:22.866Z,1017.32
2022-08-09T08:40:03.663Z,1017.32
2022-08-09T08:40:44.665Z,1017.31
2022-08-09T08:41:27.108Z,1017.31
2022-08-09T08:42:07.274Z,1017.3
2022-08-09T08:42:47.838Z,1017.35
2022-08-09T08:43:28.404Z,1017.32
2022-08-09T08:44:08.953Z,1017.32
2022-08-09T08:45:36.952Z,1017.3
2022-08-09T08:46:31.847Z,1017.28
2022-08-09T08:46:59.467Z,1017.31
2022-08-09T08:47:32.960Z,1017.3
2022-08-09T08:48:16.930Z,1017.34
2022-08-09T08:48:54.224Z,1017.31
2022-08-09T08:49:38.732Z,1017.26
2022-08-09T08:50:15.490Z,1017.29
2022-08-09T08:50:55.760Z,1017.3
2022-08-09T08:51:38.747Z,1017.29
2022-08-09T08:52:35.269Z,1017.28
2022-08-09T08:53:00.200Z,1017.28
2022-08-09T08:53:38.145Z,1017.26
2022-08-09T08:54:20.090Z,1017.25
2022-08-09T08:54:59.245Z,1017.23
2022-08-09T08:55:39.719Z,1017.27
2022-08-09T08:56:25.160Z,1017.28
2022-08-09T08:57:00.931Z,1017.27
2022-08-09T08:57:41.429Z,1017.29
2022-08-09T08:58:24.043Z,1017.28
2022-08-09T08:59:02.477Z,1017.24
2022-08-09T08:59:44.678Z,1017.23
2022-08-09T09:00:27.485Z,1017.26
2022-08-09T09:01:08.781Z,1017.22
2022-08-09T09:01:52.569Z,1017.25
2022-08-09T09:02:31.075Z,1017.23
2022-08-09T09:03:08.535Z,1017.23
2022-08-09T09:03:46.366Z,1017.23
2022-08-09T09:04:27.572Z,1017.26
2022-08-09T09:05:10.059Z,1017.27
2022-08-09T09:05:59.249Z,1017.29
2022-08-09T09:06:28.635Z,1017.28
2022-08-09T09:07:09.265Z,1017.26
2022-08-09T09:07:49.870Z,1017.27
2022-08-09T09:08:31.736Z,1017.31
2022-08-09T09:09:20.873Z,1017.35
2022-08-09T09:09:58.917Z,1017.33
2022-08-09T09:10:32.192Z,1017.32
2022-08-09T09:11:13.484Z,1017.36
2022-08-09T09:11:53.399Z,1017.36
2022-08-09T09:12:35.688Z,1017.41
2022-08-09T09:15:33.850Z,1017.35
2022-08-09T09:16:14.758Z,1017.39
2022-08-09T09:16:56.181Z,1017.39
2022-08-09T09:17:48.154Z,1017.39
2022-08-09T09:18:17.214Z,1017.36
2022-08-09T09:19:11.001Z,1017.38
2022-08-09T09:19:41.022Z,1017.4
2022-08-09T09:20:20.724Z,1017.41
2022-08-09T09:20:59.832Z,1017.38
2022-08-09T09:21:43.330Z,1017.39
2022-08-09T09:22:23.919Z,1017.36
2022-08-09T09:23:02.360Z,1017.32
2022-08-09T09:23:42.286Z,1017.35
2022-08-09T09:24:23.035Z,1017.38
2022-08-09T09:26:00.728Z,1017.37
2022-08-09T09:26:02.700Z,1017.38
2022-08-09T09:26:26.047Z,1017.35
2022-08-09T09:29:02.679Z,1017.34
2022-08-09T09:29:23.932Z,1017.33
2022-08-09T09:30:14.470Z,1017.3
2022-08-09T09:30:47.787Z,1017.31
2022-08-09T09:32:04.309Z,1017.33
2022-08-09T09:32:15.348Z,1017.39
2022-08-09T09:32:49.460Z,1017.37
2022-08-09T09:33:29.947Z,1017.37
2022-08-09T09:34:10.653Z,1017.35
2022-08-09T09:34:51.094Z,1017.35
2022-08-09T09:36:11.938Z,1017.34
2022-08-09T09:36:51.329Z,1017.38
2022-08-09T09:37:31.727Z,1017.34
2022-08-09T09:38:08.129Z,1017.33
2022-08-09T09:38:48.716Z,1017.3
2022-08-09T09:39:42.990Z,1017.3
2022-08-09T09:40:09.952Z,1017.3
2022-08-09T09:40:50.508Z,1017.25
2022-08-09T09:42:11.963Z,1017.21
2022-08-09T09:42:53.267Z,1017.31
2022-08-09T09:43:41.146Z,1017.29
2022-08-09T09:44:15.649Z,1017.28
2022-08-09T09:44:54.823Z,1017.22
2022-08-09T09:45:56.679Z,1017.24
2022-08-09T09:46:56.549Z,1017.21
2022-08-09T09:47:42.221Z,1017.24
2022-08-09T09:48:17.575Z,1017.25
2022-08-09T09:48:58.256Z,1017.24
2022-08-09T09:50:07.715Z,1017.23
2022-08-09T09:50:19.734Z,1017.25
2022-08-09T09:51:00.184Z,1017.23
2022-08-09T09:51:42.315Z,1017.29
2022-08-09T09:52:33.789Z,1017.28
2022-08-09T09:53:03.712Z,1017.26
2022-08-09T09:53:58.388Z,1017.26
2022-08-09T09:54:25.352Z,1017.29
2022-08-09T09:55:08.106Z,1017.32
2022-08-09T09:58:38.194Z,1017.21
2022-08-09T09:59:18.751Z,1017.25
2022-08-09T09:59:59.415Z,1017.28
2022-08-09T10:00:39.945Z,1017.25
2022-08-09T10:01:30.437Z,1017.27
2022-08-09T10:02:01.143Z,1017.25